Time;durP1;ratioP1;P1;durP2;ratioP2;P2;SDS_P1;SDS_P2;PMS_P1;PMS_P2;Temp;Humidity;BMP_temperature;BMP_pressure;BME280_temperature;BME280_humidity;BME280_pressure;Samples;Min_cycle;Max_cycle;Signal;HPM_P1;HPM_P2
2023/04/26 00:01:02;;;;;;;7.93;1.63;;;3.30;99.90;;;;;;5063459;28;20220;-83
2023/04/26 00:03:30;;;;;;;6.53;1.50;;;3.30;99.90;;;;;;5069974;28;20227;-83
2023/04/26 00:05:56;;;;;;;6.37;2.10;;;3.30;99.90;;;;;;5073645;28;20236;-83
2023/04/26 00:08:23;;;;;;;8.13;1.67;;;3.30;99.90;;;;;;5058495;28;20595;-83
2023/04/26 00:10:51;;;;;;;7.93;2.10;;;3.30;99.90;;;;;;5056514;28;20225;-84
2023/04/26 00:13:18;;;;;;;10.00;1.73;;;3.30;99.90;;;;;;5058085;28;20228;-83
2023/04/26 00:15:44;;;;;;;8.00;1.70;;;3.30;99.90;;;;;;5071044;28;20224;-83
2023/04/26 00:18:12;;;;;;;8.13;1.83;;;3.20;99.90;;;;;;5050320;28;20236;-82
2023/04/26 00:20:39;;;;;;;8.23;1.80;;;3.20;99.90;;;;;;5065916;28;20241;-83
2023/04/26 00:23:08;;;;;;;6.33;1.40;;;3.20;99.90;;;;;;5073609;28;20249;-82
2023/04/26 00:25:35;;;;;;;4.90;1.53;;;3.20;99.90;;;;;;5071011;28;20316;-82
2023/04/26 00:28:03;;;;;;;7.07;1.50;;;3.10;99.90;;;;;;5069986;28;20535;-83
2023/04/26 00:30:33;;;;;;;5.93;1.40;;;3.10;99.90;;;;;;5079116;28;20231;-83
2023/04/26 00:33:00;;;;;;;5.00;1.57;;;3.10;99.90;;;;;;5076390;28;20632;-83
2023/04/26 00:35:26;;;;;;;6.13;1.40;;;3.10;99.90;;;;;;5067002;28;20226;-83
2023/04/26 00:37:53;;;;;;;8.57;2.50;;;3.10;99.90;;;;;;5065737;28;20465;-82
2023/04/26 00:40:20;;;;;;;6.53;1.50;;;3.10;99.90;;;;;;5062689;28;20221;-84
2023/04/26 00:42:47;;;;;;;6.90;1.37;;;3.10;99.90;;;;;;5067740;28;20243;-83
2023/04/26 00:45:15;;;;;;;9.13;1.70;;;3.10;99.90;;;;;;5061987;28;20731;-83
2023/04/26 00:47:41;;;;;;;5.43;1.43;;;3.10;99.90;;;;;;5061020;28;20863;-83
2023/04/26 00:50:09;;;;;;;7.40;1.90;;;3.10;99.90;;;;;;5060275;28;20220;-83
2023/04/26 00:52:36;;;;;;;7.20;1.40;;;3.10;99.90;;;;;;5064448;28;20229;-83
2023/04/26 00:55:03;;;;;;;6.57;1.80;;;3.10;99.90;;;;;;5056294;28;20224;-82
2023/04/26 00:57:30;;;;;;;5.23;1.33;;;3.10;99.90;;;;;;5058232;28;20672;-83
2023/04/26 00:59:57;;;;;;;7.10;1.50;;;3.10;99.90;;;;;;5063959;28;20229;-83
2023/04/26 01:02:26;;;;;;;4.40;1.27;;;3.10;99.90;;;;;;5063003;28;20254;-82
2023/04/26 01:04:52;;;;;;;5.17;1.33;;;3.10;99.90;;;;;;5068461;28;20223;-82
2023/04/26 01:07:19;;;;;;;7.93;1.57;;;3.10;99.90;;;;;;5061412;28;20222;-82
2023/04/26 01:09:48;;;;;;;5.30;1.73;;;3.10;99.90;;;;;;5065111;28;20238;-82
2023/04/26 01:12:15;;;;;;;6.73;1.80;;;3.10;99.90;;;;;;5071844;28;20655;-82
2023/04/26 01:14:42;;;;;;;5.30;1.33;;;3.10;99.90;;;;;;5061863;28;20253;-82
2023/04/26 01:17:09;;;;;;;6.80;1.47;;;3.10;99.90;;;;;;5059329;28;20292;-84
2023/04/26 01:19:46;;;;;;;5.00;1.20;;;3.10;99.90;;;;;;5059914;28;20258;-83
2023/04/26 01:22:13;;;;;;;2.77;1.10;;;3.10;99.90;;;;;;5065739;28;20228;-83
2023/04/26 01:24:43;;;;;;;8.73;1.80;;;3.10;99.90;;;;;;5064511;28;20219;-82
2023/04/26 01:27:10;;;;;;;3.43;1.23;;;3.10;99.90;;;;;;5061515;28;20252;-83
2023/04/26 01:29:36;;;;;;;8.83;1.73;;;3.00;99.90;;;;;;5072130;28;20237;-82
2023/04/26 01:32:04;;;;;;;6.47;1.27;;;3.00;99.90;;;;;;5061205;28;20239;-83
2023/04/26 01:34:32;;;;;;;7.53;1.80;;;3.00;99.90;;;;;;5062183;28;20226;-82
2023/04/26 01:36:59;;;;;;;5.77;1.53;;;2.90;99.90;;;;;;5064356;28;20600;-83
2023/04/26 01:39:28;;;;;;;6.23;1.70;;;2.90;99.90;;;;;;5079945;28;20215;-83
2023/04/26 01:41:58;;;;;;;8.90;2.10;;;2.80;99.90;;;;;;5072318;28;20302;-83
2023/04/26 01:44:25;;;;;;;7.87;1.50;;;2.80;99.90;;;;;;5073321;28;20224;-83
2023/04/26 01:46:52;;;;;;;7.07;1.60;;;2.70;99.90;;;;;;5060418;28;20754;-82
2023/04/26 01:49:19;;;;;;;9.80;2.20;;;2.70;99.90;;;;;;5068737;28;20228;-82
2023/04/26 01:51:47;;;;;;;7.30;1.87;;;2.70;99.90;;;;;;5065266;28;20231;-82
2023/04/26 01:54:13;;;;;;;11.57;2.40;;;2.60;99.90;;;;;;5066937;28;20301;-82
2023/04/26 01:56:41;;;;;;;6.10;1.90;;;2.60;99.90;;;;;;5061169;28;21015;-82
2023/04/26 01:59:09;;;;;;;7.07;2.40;;;2.50;99.90;;;;;;5067288;28;20227;-83
2023/04/26 02:01:36;;;;;;;7.27;2.60;;;2.50;99.90;;;;;;5064986;28;20719;-81
2023/04/26 02:04:03;;;;;;;11.03;2.67;;;2.50;99.90;;;;;;5063909;28;20228;-82
2023/04/26 02:06:30;;;;;;;8.50;2.50;;;2.50;99.90;;;;;;5068246;28;20661;-82
2023/04/26 02:08:57;;;;;;;7.13;2.20;;;2.50;99.90;;;;;;5064830;28;20234;-82
2023/04/26 02:11:25;;;;;;;5.70;2.60;;;2.40;99.90;;;;;;5059560;28;20223;-82
2023/04/26 02:13:52;;;;;;;9.03;3.20;;;2.50;99.90;;;;;;5034348;28;20793;-83
2023/04/26 02:16:22;;;;;;;12.40;2.60;;;2.50;99.90;;;;;;5057638;28;20219;-83
2023/04/26 02:18:49;;;;;;;5.47;2.53;;;2.50;99.90;;;;;;5065899;28;20314;-83
2023/04/26 02:21:17;;;;;;;8.90;2.20;;;2.50;99.90;;;;;;5055856;28;20894;-82
2023/04/26 02:23:44;;;;;;;7.53;2.67;;;2.60;99.90;;;;;;5060192;28;20227;-82
2023/04/26 02:26:11;;;;;;;12.40;2.37;;;2.60;99.90;;;;;;5059316;28;20214;-83
2023/04/26 02:28:38;;;;;;;8.10;3.03;;;2.70;99.90;;;;;;5057404;28;20297;-83
2023/04/26 02:31:05;;;;;;;7.97;2.00;;;2.70;99.90;;;;;;5063557;28;20252;-83
2023/04/26 02:33:33;;;;;;;5.23;2.40;;;2.80;99.90;;;;;;5057892;28;20221;-82
2023/04/26 02:36:03;;;;;;;6.00;2.30;;;2.80;99.90;;;;;;5058678;28;20227;-81
2023/04/26 02:38:30;;;;;;;9.67;2.83;;;2.90;99.90;;;;;;5059824;28;20217;-82
2023/04/26 02:41:00;;;;;;;8.17;2.40;;;3.00;99.90;;;;;;5061717;28;20241;-82
2023/04/26 02:43:27;;;;;;;8.60;2.67;;;3.00;99.90;;;;;;5066118;28;20280;-81
2023/04/26 02:45:57;;;;;;;7.63;2.40;;;3.00;99.90;;;;;;5062758;28;20220;-81
2023/04/26 02:48:24;;;;;;;9.63;2.60;;;3.00;99.90;;;;;;5064298;28;20236;-81
2023/04/26 02:50:52;;;;;;;9.40;3.00;;;3.10;99.90;;;;;;5067237;28;20771;-82
2023/04/26 02:53:19;;;;;;;9.10;2.73;;;3.00;99.90;;;;;;5069348;28;20293;-83
2023/04/26 02:55:46;;;;;;;9.60;2.43;;;3.00;99.90;;;;;;5069734;28;20273;-85
2023/04/26 02:58:13;;;;;;;9.83;2.87;;;3.00;99.90;;;;;;5068879;22;20991;-76
2023/04/26 03:00:45;;;;;;;5.87;2.57;;;3.00;99.90;;;;;;5016845;28;20229;-75
2023/04/26 03:03:11;;;;;;;6.07;2.27;;;2.90;99.90;;;;;;5009406;28;20237;-76
2023/04/26 03:05:38;;;;;;;10.13;2.73;;;2.90;99.90;;;;;;5015131;28;20312;-75
2023/04/26 03:08:07;;;;;;;7.33;2.50;;;2.80;99.90;;;;;;5010147;28;20256;-75
2023/04/26 03:10:34;;;;;;;5.87;2.33;;;2.80;99.90;;;;;;5030542;28;20320;-77
2023/04/26 03:13:02;;;;;;;6.00;2.47;;;2.70;99.90;;;;;;5037430;28;20243;-77
2023/04/26 03:15:29;;;;;;;3.33;2.10;;;2.70;99.90;;;;;;5036691;28;20212;-76
2023/04/26 03:17:57;;;;;;;5.60;2.23;;;2.60;99.90;;;;;;5046960;28;20218;-77
2023/04/26 03:20:24;;;;;;;8.67;2.00;;;2.60;99.90;;;;;;5045617;28;20233;-76
2023/04/26 03:22:51;;;;;;;4.03;1.90;;;2.50;99.90;;;;;;5029899;28;20213;-76
2023/04/26 03:25:20;;;;;;;3.73;1.53;;;2.50;99.90;;;;;;5038273;28;20238;-76
2023/04/26 03:27:46;;;;;;;7.27;2.30;;;2.40;99.90;;;;;;5032609;28;20224;-77
2023/04/26 03:30:14;;;;;;;7.87;2.20;;;2.50;99.90;;;;;;5042514;28;20583;-76
2023/04/26 03:32:43;;;;;;;9.73;2.57;;;2.50;99.90;;;;;;5043992;28;20259;-77
2023/04/26 03:35:10;;;;;;;7.23;2.30;;;2.50;99.90;;;;;;5039331;28;20234;-77
2023/04/26 03:37:38;;;;;;;6.23;2.27;;;2.50;99.90;;;;;;5039183;28;20233;-77
2023/04/26 03:40:08;;;;;;;7.70;2.27;;;2.60;99.90;;;;;;5041117;28;20615;-77
2023/04/26 03:42:36;;;;;;;8.43;2.90;;;2.60;99.90;;;;;;5042230;28;20257;-77
2023/04/26 03:45:03;;;;;;;6.93;2.40;;;2.70;99.90;;;;;;5041652;28;20695;-77
2023/04/26 03:47:30;;;;;;;8.57;2.67;;;2.70;99.90;;;;;;5033350;28;20237;-77
2023/04/26 03:49:58;;;;;;;6.97;2.87;;;2.80;99.90;;;;;;5041267;28;20776;-77
2023/04/26 03:52:25;;;;;;;5.90;2.70;;;2.80;99.90;;;;;;5022952;28;20768;-77
2023/04/26 03:54:52;;;;;;;7.67;3.40;;;2.90;99.90;;;;;;5037832;28;20223;-76
2023/04/26 03:57:19;;;;;;;5.73;2.70;;;2.90;99.90;;;;;;5029676;28;20229;-77
2023/04/26 03:59:48;;;;;;;8.50;2.80;;;2.80;99.90;;;;;;5030025;28;20518;-77
2023/04/26 04:02:16;;;;;;;8.20;2.90;;;2.80;99.90;;;;;;5041262;28;20430;-78
2023/04/26 04:04:43;;;;;;;11.80;3.20;;;2.80;99.90;;;;;;5036759;28;20234;-78
2023/04/26 04:07:10;;;;;;;6.70;2.50;;;2.80;99.90;;;;;;5035886;28;20220;-77
2023/04/26 04:09:36;;;;;;;8.90;2.70;;;2.70;99.90;;;;;;5051943;28;20219;-77
2023/04/26 04:12:03;;;;;;;4.70;2.70;;;2.70;99.90;;;;;;5033192;28;20296;-77
2023/04/26 04:14:31;;;;;;;7.20;2.40;;;2.70;99.90;;;;;;5034599;28;20245;-77
2023/04/26 04:16:59;;;;;;;5.87;2.50;;;2.70;99.90;;;;;;5038477;28;20236;-79
2023/04/26 04:19:27;;;;;;;6.57;2.30;;;2.70;99.90;;;;;;5041504;28;20384;-79
2023/04/26 04:21:55;;;;;;;9.90;3.00;;;2.70;99.90;;;;;;5042019;28;21367;-80
2023/04/26 04:24:22;;;;;;;8.50;2.60;;;2.70;99.90;;;;;;5044657;28;20216;-79
2023/04/26 04:26:49;;;;;;;6.20;2.60;;;2.60;99.90;;;;;;5040168;28;20401;-79
2023/04/26 04:29:15;;;;;;;9.50;2.60;;;2.60;99.90;;;;;;5053386;28;20218;-79
2023/04/26 04:31:43;;;;;;;7.03;2.50;;;2.60;99.90;;;;;;5039633;28;21092;-79
2023/04/26 04:34:11;;;;;;;5.90;2.27;;;2.60;99.90;;;;;;5057183;28;20316;-80
2023/04/26 04:36:42;;;;;;;6.37;2.60;;;2.60;99.90;;;;;;5037325;28;20265;-80
2023/04/26 04:39:14;;;;;;;7.50;2.53;;;2.60;99.90;;;;;;5035480;28;20221;-80
2023/04/26 04:41:46;;;;;;;7.10;2.50;;;2.70;99.90;;;;;;5044180;28;20598;-79
2023/04/26 04:44:15;;;;;;;6.77;2.53;;;2.70;99.90;;;;;;5035384;28;20232;-78
2023/04/26 04:46:43;;;;;;;6.00;2.40;;;2.70;99.90;;;;;;5043860;28;20322;-77
2023/04/26 04:49:14;;;;;;;8.93;2.63;;;2.80;99.90;;;;;;5036510;28;20228;-77
2023/04/26 04:51:44;;;;;;;9.50;2.90;;;2.80;99.90;;;;;;5044990;28;20216;-76
2023/04/26 04:54:13;;;;;;;7.73;2.80;;;2.90;99.90;;;;;;5043905;28;20209;-77
2023/04/26 04:56:42;;;;;;;7.57;2.80;;;2.90;99.90;;;;;;5047213;28;20225;-78
2023/04/26 04:59:10;;;;;;;7.90;2.80;;;3.00;99.90;;;;;;5041004;28;20217;-77
2023/04/26 05:01:38;;;;;;;6.27;3.13;;;3.00;99.90;;;;;;5045029;28;20421;-77
2023/04/26 05:04:10;;;;;;;10.40;3.37;;;3.20;99.90;;;;;;5044209;28;20608;-78
2023/04/26 05:06:37;;;;;;;7.90;3.23;;;3.10;99.90;;;;;;5048093;28;20284;-76
2023/04/26 05:09:05;;;;;;;6.50;2.87;;;3.20;99.90;;;;;;5061664;28;20232;-78
2023/04/26 05:11:32;;;;;;;8.77;3.27;;;3.30;99.90;;;;;;5047461;28;20223;-79
2023/04/26 05:14:00;;;;;;;7.57;3.07;;;3.30;99.90;;;;;;5048316;28;20315;-80
2023/04/26 05:16:27;;;;;;;5.40;3.00;;;3.40;99.90;;;;;;5047613;28;20295;-80
2023/04/26 05:18:55;;;;;;;12.10;3.27;;;3.40;99.90;;;;;;5043258;28;20245;-80
2023/04/26 05:21:24;;;;;;;9.80;3.60;;;3.40;99.90;;;;;;5064008;28;20276;-80
2023/04/26 05:23:51;;;;;;;10.07;3.43;;;3.50;99.90;;;;;;5033367;28;20810;-81
2023/04/26 05:26:19;;;;;;;7.47;3.30;;;3.60;99.90;;;;;;5049646;28;20235;-80
2023/04/26 05:29:06;;;;;;;10.60;3.17;;;3.60;99.90;;;;;;5029665;28;20228;-80
2023/04/26 05:31:44;;;;;;;9.27;3.83;;;3.70;99.90;;;;;;5049207;28;20233;-80
2023/04/26 05:34:29;;;;;;;8.80;3.87;;;3.70;99.90;;;;;;5029462;28;20237;-79
2023/04/26 05:36:59;;;;;;;12.70;3.73;;;3.70;99.90;;;;;;5028489;28;20275;-82
2023/04/26 05:39:27;;;;;;;9.60;3.90;;;3.80;99.90;;;;;;5047032;28;20225;-82
2023/04/26 05:41:54;;;;;;;9.20;3.60;;;3.80;99.90;;;;;;5037179;28;20216;-80
2023/04/26 05:44:24;;;;;;;10.83;3.77;;;3.90;99.90;;;;;;5044219;28;20231;-81
2023/04/26 05:46:51;;;;;;;7.67;3.30;;;3.80;99.90;;;;;;5054132;28;20229;-81
2023/04/26 05:49:18;;;;;;;10.90;3.53;;;4.00;99.90;;;;;;5046199;28;20222;-82
2023/04/26 05:51:44;;;;;;;9.13;3.50;;;4.00;99.90;;;;;;5064187;28;20248;-82
2023/04/26 05:54:13;;;;;;;6.47;3.40;;;4.00;99.90;;;;;;5031265;28;20226;-82
2023/04/26 05:56:40;;;;;;;8.90;3.20;;;4.00;99.90;;;;;;5017290;28;20773;-80
2023/04/26 05:59:07;;;;;;;7.03;3.60;;;4.00;99.90;;;;;;5055121;28;20232;-81
2023/04/26 06:01:34;;;;;;;9.07;3.90;;;4.00;99.90;;;;;;5012453;28;20633;-80
2023/04/26 06:04:02;;;;;;;6.40;3.57;;;4.00;99.90;;;;;;5036897;28;20218;-76
2023/04/26 06:06:36;;;;;;;6.63;3.27;;;4.10;99.90;;;;;;5027201;28;20256;-77
2023/04/26 06:09:03;;;;;;;7.77;4.17;;;4.20;99.90;;;;;;5018826;28;20855;-77
2023/04/26 06:11:31;;;;;;;10.13;4.50;;;4.30;99.90;;;;;;5039254;28;20229;-78
2023/04/26 06:13:58;;;;;;;10.17;5.87;;;4.40;99.90;;;;;;5042594;28;20236;-77
2023/04/26 06:16:25;;;;;;;8.43;3.63;;;4.60;99.90;;;;;;5039313;28;20239;-77
2023/04/26 06:18:52;;;;;;;7.80;3.80;;;4.70;99.90;;;;;;5044307;28;20317;-76
2023/04/26 06:21:18;;;;;;;11.30;4.53;;;4.80;99.90;;;;;;5037804;28;20302;-78
2023/04/26 06:23:45;;;;;;;12.60;3.90;;;4.90;99.90;;;;;;5042284;28;20276;-77
2023/04/26 06:26:12;;;;;;;8.27;3.53;;;5.00;99.90;;;;;;5044458;28;20343;-76
2023/04/26 06:28:40;;;;;;;6.83;3.40;;;5.10;99.90;;;;;;5017345;28;20239;-75
2023/04/26 06:31:07;;;;;;;7.80;3.20;;;5.10;99.90;;;;;;5037141;28;20315;-74
2023/04/26 06:33:33;;;;;;;13.43;4.13;;;5.30;99.90;;;;;;5039552;28;20648;-75
2023/04/26 06:36:01;;;;;;;9.27;3.47;;;5.30;99.90;;;;;;5042245;28;20218;-76
2023/04/26 06:38:28;;;;;;;8.53;3.30;;;5.40;99.90;;;;;;5045386;28;20222;-76
2023/04/26 06:40:55;;;;;;;10.70;3.50;;;5.50;99.90;;;;;;5039444;28;20752;-76
2023/04/26 06:43:21;;;;;;;7.63;3.33;;;5.60;99.90;;;;;;5039593;28;20234;-76
2023/04/26 06:45:58;;;;;;;8.47;3.57;;;5.70;99.90;;;;;;5035944;28;20322;-76
2023/04/26 06:48:25;;;;;;;8.27;3.30;;;5.80;99.90;;;;;;5037783;28;20265;-76
2023/04/26 06:50:52;;;;;;;9.43;3.00;;;6.00;99.90;;;;;;5034963;28;20301;-75
2023/04/26 06:53:19;;;;;;;8.77;3.90;;;6.20;99.90;;;;;;5035967;28;20234;-76
2023/04/26 06:55:45;;;;;;;7.03;2.93;;;6.40;99.90;;;;;;5046967;28;20898;-76
2023/04/26 06:58:12;;;;;;;8.07;3.40;;;6.50;99.90;;;;;;5013323;28;20326;-78
2023/04/26 07:00:39;;;;;;;9.67;3.17;;;6.60;99.90;;;;;;5019928;28;20546;-76
2023/04/26 07:03:07;;;;;;;8.33;3.30;;;6.80;99.90;;;;;;5019332;28;20229;-78
2023/04/26 07:05:33;;;;;;;8.17;3.53;;;6.90;99.90;;;;;;5025628;28;20231;-76
2023/04/26 07:08:00;;;;;;;6.50;2.90;;;7.00;99.90;;;;;;5019318;28;20795;-76
2023/04/26 07:10:27;;;;;;;6.00;2.60;;;7.00;99.90;;;;;;5018799;28;20235;-75
2023/04/26 07:12:54;;;;;;;7.60;3.03;;;7.10;99.90;;;;;;5006026;28;20246;-74
2023/04/26 07:15:21;;;;;;;10.20;3.30;;;7.20;99.90;;;;;;5011545;28;20498;-75
2023/04/26 07:17:48;;;;;;;6.97;2.90;;;7.40;99.90;;;;;;5015032;28;20219;-76
2023/04/26 07:20:19;;;;;;;9.53;3.80;;;7.50;99.90;;;;;;5024969;28;20223;-76
2023/04/26 07:22:45;;;;;;;9.30;3.77;;;7.70;99.90;;;;;;5035326;28;20224;-75
2023/04/26 07:25:12;;;;;;;8.73;3.07;;;7.90;99.90;;;;;;5035843;28;20226;-76
2023/04/26 07:27:39;;;;;;;10.23;3.40;;;8.20;99.90;;;;;;5034254;28;20243;-76
2023/04/26 07:30:07;;;;;;;10.67;2.87;;;8.40;99.90;;;;;;5017777;28;20615;-76
2023/04/26 07:32:33;;;;;;;6.80;2.77;;;8.70;99.90;;;;;;5048823;28;20617;-76
2023/04/26 07:35:00;;;;;;;7.20;3.13;;;9.10;99.90;;;;;;5016888;28;20220;-76
2023/04/26 07:37:28;;;;;;;8.73;3.17;;;9.50;99.90;;;;;;5019264;28;20410;-76
2023/04/26 07:39:55;;;;;;;5.90;2.70;;;10.00;99.90;;;;;;5015166;28;20231;-76
2023/04/26 07:42:21;;;;;;;5.30;2.50;;;10.60;99.90;;;;;;5013675;28;20226;-74
2023/04/26 07:44:48;;;;;;;6.80;2.33;;;11.00;99.90;;;;;;5040151;28;20377;-76
2023/04/26 07:47:15;;;;;;;4.97;2.37;;;11.30;99.90;;;;;;5014325;28;20714;-75
2023/04/26 07:49:41;;;;;;;7.83;2.80;;;11.40;99.90;;;;;;5031274;28;20509;-75
2023/04/26 07:52:10;;;;;;;7.77;2.63;;;11.40;99.90;;;;;;5031606;28;20706;-75
2023/04/26 07:54:39;;;;;;;5.23;2.43;;;11.60;99.90;;;;;;5037877;28;20231;-75
2023/04/26 07:57:05;;;;;;;7.10;2.63;;;11.80;99.90;;;;;;5021870;28;20535;-75
2023/04/26 07:59:32;;;;;;;5.90;2.40;;;12.10;99.90;;;;;;5031361;28;20228;-76
2023/04/26 08:02:00;;;;;;;8.13;2.30;;;12.40;99.90;;;;;;5029668;28;20250;-75
2023/04/26 08:04:33;;;;;;;4.53;2.20;;;12.60;99.90;;;;;;5047239;28;20638;-76
2023/04/26 08:07:01;;;;;;;5.97;2.20;;;12.80;99.40;;;;;;5040596;28;20231;-76
2023/04/26 08:09:28;;;;;;;3.23;2.00;;;13.00;99.10;;;;;;5032749;28;20500;-75
2023/04/26 08:11:56;;;;;;;8.33;2.17;;;13.00;98.60;;;;;;5035238;28;20524;-75
2023/04/26 08:14:23;;;;;;;6.00;2.23;;;12.90;96.70;;;;;;5022607;28;20321;-76
2023/04/26 08:16:50;;;;;;;7.67;2.47;;;12.70;97.00;;;;;;5039306;28;20229;-76
2023/04/26 08:19:17;;;;;;;2.97;1.40;;;12.40;96.90;;;;;;5029931;28;20227;-76
2023/04/26 08:21:43;;;;;;;3.17;0.93;;;12.00;97.20;;;;;;5035658;28;20632;-76
2023/04/26 08:24:10;;;;;;;2.47;1.10;;;11.50;97.50;;;;;;5040237;28;20228;-76
2023/04/26 08:26:36;;;;;;;1.37;0.80;;;10.90;98.10;;;;;;5044332;28;20240;-76
2023/04/26 08:29:07;;;;;;;1.90;1.00;;;10.40;99.30;;;;;;5031389;28;20317;-76
2023/04/26 08:31:34;;;;;;;2.77;1.03;;;9.90;99.90;;;;;;5032677;28;20234;-76
2023/04/26 08:34:01;;;;;;;3.87;1.37;;;9.50;99.90;;;;;;5041075;28;20286;-76
2023/04/26 08:36:28;;;;;;;3.03;1.47;;;9.20;99.90;;;;;;5041425;28;20223;-76
2023/04/26 08:38:56;;;;;;;4.90;1.63;;;9.00;99.90;;;;;;5047527;28;20238;-76
2023/04/26 08:41:24;;;;;;;3.70;1.67;;;9.00;99.90;;;;;;5042983;28;20219;-76
2023/04/26 08:43:51;;;;;;;3.43;1.60;;;9.10;99.90;;;;;;5050047;28;20776;-76
2023/04/26 08:46:20;;;;;;;4.23;1.90;;;9.30;99.90;;;;;;5022630;28;20224;-76
2023/04/26 08:48:54;;;;;;;3.70;1.80;;;9.70;99.90;;;;;;5034214;28;20222;-76
2023/04/26 08:51:21;;;;;;;7.13;1.90;;;10.20;99.90;;;;;;5035510;28;20333;-76
2023/04/26 08:53:51;;;;;;;8.07;1.70;;;10.70;99.90;;;;;;5041846;28;20836;-76
2023/04/26 08:56:18;;;;;;;5.50;1.93;;;11.10;99.90;;;;;;5038377;28;20260;-76
2023/04/26 08:58:45;;;;;;;5.50;1.70;;;11.60;99.90;;;;;;5040120;28;20231;-76
2023/04/26 09:01:15;;;;;;;6.17;2.03;;;11.80;99.90;;;;;;5044790;28;20466;-74
2023/04/26 09:03:43;;;;;;;5.23;1.93;;;12.10;99.90;;;;;;5020997;28;20232;-76
2023/04/26 09:06:10;;;;;;;8.13;2.23;;;12.20;99.90;;;;;;5045298;28;20230;-76
2023/04/26 09:08:41;;;;;;;5.40;1.93;;;12.30;99.90;;;;;;5041929;28;20224;-76
2023/04/26 09:11:07;;;;;;;4.73;1.70;;;12.50;99.90;;;;;;5039427;28;20802;-76
2023/04/26 09:13:34;;;;;;;3.47;1.50;;;12.70;99.90;;;;;;5036577;28;20218;-75
2023/04/26 09:16:01;;;;;;;4.77;2.20;;;12.90;99.90;;;;;;5039803;28;20223;-76
2023/04/26 09:18:30;;;;;;;7.83;2.10;;;13.20;99.90;;;;;;5041294;28;20274;-75
2023/04/26 09:21:06;;;;;;;6.60;2.20;;;13.50;99.90;;;;;;5030631;28;20245;-76
2023/04/26 09:23:33;;;;;;;8.73;2.93;;;13.70;99.00;;;;;;5036118;28;20216;-75
2023/04/26 09:26:16;;;;;;;6.13;2.23;;;13.90;98.80;;;;;;5046853;28;20227;-76
2023/04/26 09:28:43;;;;;;;4.00;2.13;;;13.80;97.30;;;;;;5031172;28;20276;-76
2023/04/26 09:31:10;;;;;;;5.00;2.10;;;13.70;96.90;;;;;;5035381;28;20227;-76
2023/04/26 09:33:36;;;;;;;4.73;2.03;;;13.40;96.80;;;;;;5030938;28;20231;-76
2023/04/26 09:36:12;;;;;;;9.03;2.70;;;13.00;96.60;;;;;;5022526;28;20231;-76
2023/04/26 09:38:42;;;;;;;4.40;2.40;;;12.60;96.70;;;;;;5034205;28;20282;-76
2023/04/26 09:41:09;;;;;;;5.43;2.30;;;12.20;97.20;;;;;;5040897;28;20214;-76
2023/04/26 09:43:37;;;;;;;7.93;2.67;;;11.80;97.50;;;;;;5038216;28;20227;-75
2023/04/26 09:46:04;;;;;;;6.80;2.40;;;11.40;97.60;;;;;;5030876;28;20692;-76
2023/04/26 09:48:33;;;;;;;4.83;2.43;;;11.10;98.10;;;;;;5030475;28;20449;-76
2023/04/26 09:51:10;;;;;;;4.93;1.93;;;10.90;99.20;;;;;;5042232;28;20228;-75
2023/04/26 09:53:40;;;;;;;5.10;1.73;;;10.90;99.90;;;;;;5026781;28;20766;-76
2023/04/26 09:56:08;;;;;;;4.67;1.80;;;11.00;99.90;;;;;;5021835;28;20220;-76
2023/04/26 09:58:37;;;;;;;4.40;1.57;;;11.40;99.90;;;;;;5020316;28;20238;-76
2023/04/26 10:01:05;;;;;;;6.03;1.60;;;11.70;99.50;;;;;;5043991;28;20223;-76
2023/04/26 10:03:34;;;;;;;7.50;1.70;;;11.90;98.10;;;;;;5039892;28;20220;-76
2023/04/26 10:06:01;;;;;;;3.60;1.50;;;12.00;96.90;;;;;;5043506;28;20221;-76
2023/04/26 10:08:28;;;;;;;6.13;1.63;;;12.10;98.10;;;;;;5054240;28;20698;-76
2023/04/26 10:10:56;;;;;;;3.80;1.50;;;12.10;97.40;;;;;;5030750;28;20239;-76
2023/04/26 10:13:25;;;;;;;3.50;1.30;;;12.20;97.80;;;;;;5032760;28;20225;-77
2023/04/26 10:15:53;;;;;;;2.97;1.13;;;12.40;96.60;;;;;;5041105;28;20228;-77
2023/04/26 10:18:20;;;;;;;4.30;1.43;;;12.70;96.90;;;;;;5037983;28;20231;-76
2023/04/26 10:20:52;;;;;;;4.70;1.27;;;13.10;96.40;;;;;;5042195;28;20226;-77
2023/04/26 10:23:21;;;;;;;2.87;1.30;;;13.50;94.60;;;;;;5040692;28;20364;-77
2023/04/26 10:25:48;;;;;;;4.40;1.60;;;13.80;93.50;;;;;;5038205;28;20227;-76
2023/04/26 10:28:18;;;;;;;3.87;1.20;;;14.10;92.70;;;;;;5032315;28;20229;-75
2023/04/26 10:30:55;;;;;;;4.03;1.10;;;14.10;92.00;;;;;;5026608;28;20275;-75
2023/04/26 10:33:22;;;;;;;4.83;1.40;;;14.10;90.90;;;;;;5032218;28;20243;-76
2023/04/26 10:36:09;;;;;;;4.10;1.53;;;13.90;91.80;;;;;;5043111;28;20781;-77
2023/04/26 10:38:38;;;;;;;7.60;1.60;;;13.70;90.90;;;;;;5045786;28;20936;-76
2023/04/26 10:41:37;;;;;;;3.17;1.10;;;13.50;90.60;;;;;;5017207;28;20314;-76
2023/04/26 10:44:39;;;;;;;2.87;1.10;;;13.10;90.40;;;;;;5004240;28;20255;-80
2023/04/26 10:47:07;;;;;;;2.23;1.10;;;12.90;90.70;;;;;;5007053;28;20229;-79
2023/04/26 10:49:45;;;;;;;4.77;1.33;;;12.80;91.20;;;;;;5054313;28;20251;-81
2023/04/26 10:52:13;;;;;;;4.50;1.10;;;12.80;90.60;;;;;;5033031;28;20228;-81
2023/04/26 10:54:48;;;;;;;2.83;1.10;;;13.00;91.70;;;;;;5043275;28;20699;-81
2023/04/26 10:57:17;;;;;;;3.50;1.50;;;13.20;91.30;;;;;;5043488;28;20233;-81
2023/04/26 11:00:19;;;;;;;4.43;1.33;;;13.60;91.50;;;;;;5043801;28;20975;-81
2023/04/26 11:02:57;;;;;;;5.20;1.40;;;14.10;90.00;;;;;;5042124;28;20316;-81
2023/04/26 11:05:39;;;;;;;3.13;1.07;;;14.60;91.50;;;;;;5038543;28;20708;-81
2023/04/26 11:08:08;;;;;;;3.60;1.47;;;15.10;89.20;;;;;;5036841;28;20237;-81
2023/04/26 11:10:38;;;;;;;3.67;1.30;;;15.40;89.10;;;;;;5044889;28;20334;-81
2023/04/26 11:13:05;;;;;;;2.77;1.10;;;15.40;82.70;;;;;;5030391;28;20231;-81
2023/04/26 11:15:34;;;;;;;3.13;1.10;;;15.20;83.90;;;;;;5054728;28;20307;-80
2023/04/26 11:18:03;;;;;;;4.93;1.20;;;14.90;84.20;;;;;;5050429;28;20302;-81
2023/04/26 11:20:31;;;;;;;2.10;1.03;;;14.50;83.30;;;;;;5029363;28;20215;-81
2023/04/26 11:22:58;;;;;;;3.53;0.83;;;14.20;83.10;;;;;;5030090;28;20223;-81
2023/04/26 11:25:26;;;;;;;2.00;0.93;;;13.80;83.00;;;;;;5026857;28;20257;-81
2023/04/26 11:27:57;;;;;;;2.73;1.33;;;13.50;82.90;;;;;;5032286;28;20233;-80
2023/04/26 11:30:24;;;;;;;3.50;1.30;;;13.30;82.80;;;;;;5025912;28;20232;-81
2023/04/26 11:32:52;;;;;;;1.73;1.10;;;13.30;83.70;;;;;;5038799;28;20228;-81
2023/04/26 11:35:22;;;;;;;2.07;0.90;;;13.30;83.40;;;;;;5045301;28;20233;-81
2023/04/26 11:37:50;;;;;;;1.87;0.90;;;13.50;84.10;;;;;;5046596;28;20301;-80
2023/04/26 11:40:18;;;;;;;2.70;1.07;;;13.70;85.20;;;;;;5046452;28;20681;-81
2023/04/26 11:42:44;;;;;;;2.70;1.03;;;13.90;85.30;;;;;;5044934;28;20263;-81
2023/04/26 11:45:12;;;;;;;7.73;1.50;;;14.10;85.10;;;;;;5043348;28;20220;-80
2023/04/26 11:47:41;;;;;;;2.47;1.00;;;14.20;83.80;;;;;;5041627;28;20323;-81
2023/04/26 11:50:10;;;;;;;2.73;1.13;;;14.10;82.80;;;;;;5049493;28;20260;-81
2023/04/26 11:52:38;;;;;;;4.77;1.07;;;14.10;82.90;;;;;;5046957;28;20236;-81
2023/04/26 11:55:06;;;;;;;4.63;1.43;;;14.00;82.30;;;;;;5045751;28;21189;-76
2023/04/26 11:57:33;;;;;;;2.63;0.93;;;13.90;81.80;;;;;;5048080;28;20235;-79
2023/04/26 12:00:13;;;;;;;2.00;1.00;;;13.80;81.40;;;;;;5050717;28;20224;-79
2023/04/26 12:02:40;;;;;;;3.83;1.23;;;13.70;79.60;;;;;;5048799;28;20240;-78
2023/04/26 12:05:12;;;;;;;2.53;1.00;;;13.60;79.20;;;;;;5050184;28;20664;-78
2023/04/26 12:07:39;;;;;;;2.70;1.00;;;13.40;77.80;;;;;;5044222;28;20220;-79
2023/04/26 12:10:16;;;;;;;1.10;0.77;;;13.20;78.10;;;;;;5047752;28;20220;-79
2023/04/26 12:12:49;;;;;;;3.40;1.10;;;13.10;78.80;;;;;;5047123;28;20212;-79
2023/04/26 12:15:16;;;;;;;3.40;1.13;;;13.00;78.00;;;;;;5050295;28;20232;-77
2023/04/26 12:17:52;;;;;;;3.97;0.97;;;13.00;78.70;;;;;;5043891;28;20231;-81
2023/04/26 12:20:30;;;;;;;3.90;1.00;;;13.00;79.20;;;;;;5038905;28;20267;-81
2023/04/26 12:23:01;;;;;;;4.00;1.17;;;13.00;79.30;;;;;;5044727;28;20273;-81
2023/04/26 12:25:27;;;;;;;3.10;0.77;;;13.10;79.40;;;;;;5037385;28;20225;-81
2023/04/26 12:27:55;;;;;;;4.43;1.07;;;13.10;80.40;;;;;;5037479;28;20755;-83
2023/04/26 12:30:22;;;;;;;2.73;1.00;;;13.30;83.00;;;;;;5040737;28;20754;-84
2023/04/26 12:33:01;;;;;;;3.80;1.20;;;13.50;82.50;;;;;;5042842;28;20229;-82
2023/04/26 12:35:29;;;;;;;3.13;1.07;;;13.80;81.90;;;;;;5043377;28;20226;-81
2023/04/26 12:37:59;;;;;;;2.47;0.90;;;14.00;80.30;;;;;;5042858;28;20222;-80
2023/04/26 12:40:26;;;;;;;3.20;1.00;;;14.00;80.00;;;;;;5039314;28;20229;-81
2023/04/26 12:42:54;;;;;;;2.40;1.07;;;13.90;77.80;;;;;;5044269;28;20305;-85
2023/04/26 12:45:22;;;;;;;5.40;1.03;;;13.80;78.10;;;;;;5041367;28;20264;-80
2023/04/26 12:47:50;;;;;;;3.03;0.70;;;13.70;77.70;;;;;;5045796;28;20256;-82
2023/04/26 12:50:17;;;;;;;2.50;1.20;;;13.60;76.70;;;;;;5042661;28;20277;-82
2023/04/26 12:52:45;;;;;;;2.10;0.90;;;13.40;76.60;;;;;;5042920;28;20681;-79
2023/04/26 12:55:13;;;;;;;4.33;1.07;;;13.30;78.00;;;;;;5041762;28;20224;-80
2023/04/26 12:57:41;;;;;;;3.87;1.20;;;13.20;77.60;;;;;;5046307;28;20231;-81
2023/04/26 13:00:11;;;;;;;3.23;1.00;;;13.20;77.30;;;;;;5044465;28;20350;-81